Time;durP1;ratioP1;P1;durP2;ratioP2;P2;SDS_P1;SDS_P2;PMS_P1;PMS_P2;Temp;Humidity;BMP_temperature;BMP_pressure;BME280_temperature;BME280_humidity;BME280_pressure;Samples;Min_cycle;Max_cycle;Signal;HPM_P1;HPM_P2
2022/01/11 00:00:25;;;;;;;;;;;11.00;55.40;;;;;;5080333;28;19916;-71
2022/01/11 00:02:52;;;;;;;;;;;11.00;55.40;;;;;;5080367;28;19950;-72
2022/01/11 00:05:26;;;;;;;;;;;11.00;55.50;;;;;;5080397;28;19946;-71
2022/01/11 00:07:52;;;;;;;;;;;11.00;55.40;;;;;;5080294;28;19904;-70
2022/01/11 00:10:27;;;;;;;;;;;10.90;55.50;;;;;;5080334;28;19912;-70
2022/01/11 00:12:54;;;;;;;;;;;11.00;55.50;;;;;;5080281;28;19912;-70
2022/01/11 00:15:19;;;;;;;;;;;11.00;55.70;;;;;;5080202;28;19904;-71
2022/01/11 00:17:45;;;;;;;;;;;11.20;55.50;;;;;;5080818;28;19912;-70
2022/01/11 00:20:13;;;;;;;;;;;11.20;55.20;;;;;;5080082;28;20262;-70
2022/01/11 00:24:26;;;;;;;;;;;11.10;54.90;;;;;;5078924;28;19973;-70
2022/01/11 00:25:26;;;;;;;;;;;11.00;55.10;;;;;;5080026;28;19919;-71
2022/01/11 00:27:51;;;;;;;;;;;11.00;55.30;;;;;;5080025;28;19912;-70
2022/01/11 00:30:17;;;;;;;;;;;10.90;55.40;;;;;;5080086;28;19911;-70
2022/01/11 00:32:48;;;;;;;;;;;10.90;55.50;;;;;;5080070;28;20170;-70
2022/01/11 00:35:16;;;;;;;;;;;10.90;55.60;;;;;;5079947;28;20203;-70
2022/01/11 00:37:42;;;;;;;;;;;10.90;55.60;;;;;;5079884;28;19911;-70
2022/01/11 00:40:08;;;;;;;;;;;10.90;55.60;;;;;;5079860;28;20116;-70
2022/01/11 00:42:34;;;;;;;;;;;10.90;55.60;;;;;;5079849;28;19921;-71
2022/01/11 00:45:00;;;;;;;;;;;10.90;55.60;;;;;;5079952;28;19920;-70
2022/01/11 00:47:26;;;;;;;;;;;10.90;55.50;;;;;;5079868;28;19912;-70
2022/01/11 00:49:53;;;;;;;;;;;11.00;55.50;;;;;;5079771;28;19958;-69
2022/01/11 00:52:19;;;;;;;;;;;11.00;55.30;;;;;;5079807;28;20116;-69
2022/01/11 00:54:45;;;;;;;;;;;11.00;55.30;;;;;;5079781;28;19905;-69
2022/01/11 00:57:10;;;;;;;;;;;11.00;55.40;;;;;;5080638;28;20392;-70
2022/01/11 00:59:36;;;;;;;;;;;10.90;55.40;;;;;;5083759;28;20116;-69
2022/01/11 01:02:02;;;;;;;;;;;10.90;55.50;;;;;;5083691;28;19943;-69
2022/01/11 01:04:27;;;;;;;;;;;10.90;55.50;;;;;;5083758;28;19912;-70
2022/01/11 01:06:53;;;;;;;;;;;10.90;55.50;;;;;;5083752;28;19912;-70
2022/01/11 01:09:18;;;;;;;;;;;10.80;55.60;;;;;;5083264;28;19919;-70
2022/01/11 01:11:45;;;;;;;;;;;10.80;55.70;;;;;;5083659;28;19961;-70
2022/01/11 01:14:11;;;;;;;;;;;10.80;55.80;;;;;;5083641;28;19917;-69
2022/01/11 01:16:37;;;;;;;;;;;10.80;55.90;;;;;;5082220;28;20173;-69
2022/01/11 01:19:03;;;;;;;;;;;10.80;55.90;;;;;;5083535;28;20314;-70
2022/01/11 01:21:36;;;;;;;;;;;10.80;55.80;;;;;;5083397;28;19923;-69
2022/01/11 01:24:02;;;;;;;;;;;10.80;55.70;;;;;;5083386;28;19916;-70
2022/01/11 01:26:27;;;;;;;;;;;10.90;55.60;;;;;;5083381;28;19919;-69
2022/01/11 01:28:53;;;;;;;;;;;10.90;55.60;;;;;;5083269;28;20194;-70
2022/01/11 01:31:19;;;;;;;;;;;10.90;55.30;;;;;;5081980;28;19919;-69
2022/01/11 01:33:45;;;;;;;;;;;10.90;55.30;;;;;;5115836;28;19975;-70
2022/01/11 01:36:11;;;;;;;;;;;10.90;55.50;;;;;;5081804;28;19936;-70
2022/01/11 01:38:37;;;;;;;;;;;10.80;55.50;;;;;;5083093;28;20086;-69
2022/01/11 01:41:13;;;;;;;;;;;10.80;55.60;;;;;;5082894;28;20014;-69
2022/01/11 01:43:39;;;;;;;;;;;10.80;55.50;;;;;;5083129;28;19947;-70
2022/01/11 01:46:04;;;;;;;;;;;10.80;55.70;;;;;;5082960;28;19904;-70
2022/01/11 01:48:30;;;;;;;;;;;10.70;55.70;;;;;;5083284;28;19920;-70
2022/01/11 01:50:56;;;;;;;;;;;10.70;55.90;;;;;;5081570;28;20268;-70
2022/01/11 01:53:22;;;;;;;;;;;10.70;56.00;;;;;;5082807;28;19919;-70
2022/01/11 01:55:48;;;;;;;;;;;10.70;56.00;;;;;;5082831;28;19913;-70
2022/01/11 01:58:14;;;;;;;;;;;10.70;56.10;;;;;;5082590;28;20432;-69
2022/01/11 02:00:44;;;;;;;;;;;10.70;55.90;;;;;;5082732;28;19916;-70
2022/01/11 02:03:12;;;;;;;;;;;10.80;55.90;;;;;;5082676;28;19904;-69
2022/01/11 02:05:41;;;;;;;;;;;10.90;55.70;;;;;;5081265;28;20108;-69
2022/01/11 02:08:07;;;;;;;;;;;10.90;55.30;;;;;;5081163;28;19977;-70
2022/01/11 02:10:34;;;;;;;;;;;10.90;55.40;;;;;;5082491;28;19916;-70
2022/01/11 02:13:00;;;;;;;;;;;10.80;55.50;;;;;;5082459;28;19912;-70
2022/01/11 02:15:26;;;;;;;;;;;10.80;55.40;;;;;;5082444;28;19913;-70
2022/01/11 02:17:52;;;;;;;;;;;10.80;55.70;;;;;;5082344;28;19912;-70
2022/01/11 02:20:18;;;;;;;;;;;10.70;55.80;;;;;;5082363;28;19912;-70
2022/01/11 02:22:43;;;;;;;;;;;10.70;55.90;;;;;;5082275;28;19995;-70
2022/01/11 02:25:09;;;;;;;;;;;10.60;55.90;;;;;;5082282;28;19913;-70
2022/01/11 02:27:34;;;;;;;;;;;10.70;56.00;;;;;;5080881;28;19915;-70
2022/01/11 02:30:00;;;;;;;;;;;10.70;56.00;;;;;;5082231;28;19912;-70
2022/01/11 02:32:26;;;;;;;;;;;10.60;56.10;;;;;;5082128;28;20283;-70
2022/01/11 02:34:51;;;;;;;;;;;10.60;56.10;;;;;;5082078;28;20120;-70
2022/01/11 02:37:17;;;;;;;;;;;10.60;56.10;;;;;;5082098;28;19916;-70
2022/01/11 02:39:45;;;;;;;;;;;10.70;56.00;;;;;;5081993;28;19974;-70
2022/01/11 02:42:11;;;;;;;;;;;10.70;55.90;;;;;;5081843;28;19924;-70
2022/01/11 02:44:37;;;;;;;;;;;10.70;55.90;;;;;;5080601;28;19904;-70
2022/01/11 02:47:03;;;;;;;;;;;10.70;55.80;;;;;;5081800;28;19962;-70
2022/01/11 02:49:28;;;;;;;;;;;10.70;55.80;;;;;;5081842;28;19920;-70
2022/01/11 02:51:54;;;;;;;;;;;10.60;55.80;;;;;;5081738;28;19913;-70
2022/01/11 02:54:20;;;;;;;;;;;10.60;55.90;;;;;;5081767;28;19912;-69
2022/01/11 02:56:46;;;;;;;;;;;10.60;56.00;;;;;;5081887;28;19952;-70
2022/01/11 02:59:12;;;;;;;;;;;10.60;56.00;;;;;;5081265;28;19939;-71
2022/01/11 03:01:37;;;;;;;;;;;10.60;56.10;;;;;;5081489;28;19920;-70
2022/01/11 03:04:03;;;;;;;;;;;10.60;56.10;;;;;;5081571;28;19920;-71
2022/01/11 03:06:28;;;;;;;;;;;10.60;56.00;;;;;;5081484;28;19979;-70
2022/01/11 03:08:54;;;;;;;;;;;10.60;56.10;;;;;;5081362;28;19905;-71
2022/01/11 03:11:21;;;;;;;;;;;10.60;56.10;;;;;;5081359;28;19913;-70
2022/01/11 03:13:47;;;;;;;;;;;10.60;56.00;;;;;;5081319;28;20239;-71
2022/01/11 03:16:13;;;;;;;;;;;10.60;55.90;;;;;;5081259;28;19913;-70
2022/01/11 03:18:39;;;;;;;;;;;10.70;55.90;;;;;;5081232;28;19919;-70
2022/01/11 03:21:05;;;;;;;;;;;10.60;55.90;;;;;;5080450;28;20254;-70
2022/01/11 03:23:31;;;;;;;;;;;10.60;56.00;;;;;;5081101;28;20124;-71
2022/01/11 03:25:56;;;;;;;;;;;10.60;56.10;;;;;;5081077;28;19919;-70
2022/01/11 03:28:22;;;;;;;;;;;10.60;56.10;;;;;;5080947;28;19939;-70
2022/01/11 03:30:49;;;;;;;;;;;10.50;56.10;;;;;;5080983;28;20424;-71
2022/01/11 03:33:15;;;;;;;;;;;10.50;56.10;;;;;;5080867;28;20384;-70
2022/01/11 03:35:41;;;;;;;;;;;10.50;56.10;;;;;;5080840;28;19912;-70
2022/01/11 03:38:07;;;;;;;;;;;10.50;56.10;;;;;;5080845;28;19912;-70
2022/01/11 03:40:33;;;;;;;;;;;10.50;56.20;;;;;;5080696;28;19946;-70
2022/01/11 03:42:59;;;;;;;;;;;10.50;56.20;;;;;;5080721;28;20371;-70
2022/01/11 03:45:25;;;;;;;;;;;10.50;56.20;;;;;;5080688;28;19904;-70
2022/01/11 03:47:52;;;;;;;;;;;10.50;56.10;;;;;;5080647;28;19912;-71
2022/01/11 03:50:19;;;;;;;;;;;10.50;56.10;;;;;;5080612;28;19916;-70
2022/01/11 03:52:45;;;;;;;;;;;10.60;56.00;;;;;;5080513;28;19932;-69
2022/01/11 03:55:12;;;;;;;;;;;10.60;55.90;;;;;;5079210;28;19912;-70
2022/01/11 03:57:38;;;;;;;;;;;10.60;55.90;;;;;;5080629;28;20135;-69
2022/01/11 04:00:07;;;;;;;;;;;10.50;55.90;;;;;;5078843;28;19928;-69
2022/01/11 04:02:33;;;;;;;;;;;10.50;56.00;;;;;;5080338;28;19934;-70
2022/01/11 04:04:58;;;;;;;;;;;10.50;56.10;;;;;;5080417;28;19912;-70
2022/01/11 04:07:26;;;;;;;;;;;10.50;56.10;;;;;;5080324;28;20006;-69
2022/01/11 04:09:53;;;;;;;;;;;10.50;56.20;;;;;;5080286;28;19912;-70
2022/01/11 04:12:18;;;;;;;;;;;10.50;56.20;;;;;;5080591;28;19916;-69
2022/01/11 04:14:44;;;;;;;;;;;10.50;56.20;;;;;;5078982;28;19904;-69
2022/01/11 04:17:10;;;;;;;;;;;10.50;56.20;;;;;;5080256;28;19916;-70
2022/01/11 04:19:36;;;;;;;;;;;10.50;56.30;;;;;;5080165;28;19918;-70
2022/01/11 04:22:02;;;;;;;;;;;10.50;56.30;;;;;;5080054;28;19979;-70
2022/01/11 04:24:28;;;;;;;;;;;10.50;56.20;;;;;;5080162;28;19919;-70
2022/01/11 04:26:53;;;;;;;;;;;10.50;56.20;;;;;;5080060;28;19944;-70
2022/01/11 04:29:19;;;;;;;;;;;10.40;56.00;;;;;;5080124;28;20215;-70
2022/01/11 04:31:45;;;;;;;;;;;10.50;56.00;;;;;;5079045;28;19913;-70
2022/01/11 04:34:10;;;;;;;;;;;10.50;56.00;;;;;;5079998;28;20155;-69
2022/01/11 04:36:36;;;;;;;;;;;10.50;55.90;;;;;;5080017;28;19912;-69
2022/01/11 04:39:06;;;;;;;;;;;10.50;56.00;;;;;;5079894;28;19912;-70
2022/01/11 04:41:32;;;;;;;;;;;10.50;56.20;;;;;;5079806;28;19923;-69
2022/01/11 04:43:57;;;;;;;;;;;10.40;56.20;;;;;;5078652;28;19912;-70
2022/01/11 04:46:23;;;;;;;;;;;10.40;56.20;;;;;;5079859;28;20009;-71
2022/01/11 04:48:49;;;;;;;;;;;10.50;56.90;;;;;;5079908;28;19912;-71
2022/01/11 04:51:15;;;;;;;;;;;10.40;56.30;;;;;;5079816;28;19904;-70
2022/01/11 04:53:41;;;;;;;;;;;10.40;56.30;;;;;;5079822;28;19963;-69
2022/01/11 04:56:07;;;;;;;;;;;10.40;56.40;;;;;;5079845;28;19938;-70
2022/01/11 04:58:33;;;;;;;;;;;10.40;56.40;;;;;;5079535;28;20172;-70
2022/01/11 05:00:59;;;;;;;;;;;10.40;56.40;;;;;;5079770;28;19912;-70
2022/01/11 05:03:24;;;;;;;;;;;10.40;56.30;;;;;;5079651;28;19904;-70
2022/01/11 05:05:50;;;;;;;;;;;10.40;56.20;;;;;;5079722;28;19913;-70
2022/01/11 05:08:15;;;;;;;;;;;10.40;56.10;;;;;;5079712;28;19912;-71
2022/01/11 05:10:42;;;;;;;;;;;10.50;56.10;;;;;;5078279;28;20176;-70
2022/01/11 05:13:09;;;;;;;;;;;10.40;56.10;;;;;;5079594;28;19912;-70
2022/01/11 05:15:35;;;;;;;;;;;10.40;56.10;;;;;;5079550;28;20150;-69
2022/01/11 05:18:01;;;;;;;;;;;10.40;56.20;;;;;;5079527;28;19913;-69
2022/01/11 05:20:26;;;;;;;;;;;10.40;56.30;;;;;;5079526;28;19987;-70
2022/01/11 05:22:52;;;;;;;;;;;10.40;56.30;;;;;;5079460;28;20354;-70
2022/01/11 05:25:18;;;;;;;;;;;10.40;56.20;;;;;;5078158;28;19920;-70
2022/01/11 05:27:43;;;;;;;;;;;10.40;56.20;;;;;;5079403;28;19970;-69
2022/01/11 05:30:09;;;;;;;;;;;10.40;56.30;;;;;;5079453;28;19912;-69
2022/01/11 05:32:35;;;;;;;;;;;10.40;56.30;;;;;;5079354;28;19908;-70
2022/01/11 05:35:05;;;;;;;;;;;10.30;56.90;;;;;;5078085;28;19912;-70
2022/01/11 05:37:31;;;;;;;;;;;10.30;56.40;;;;;;5079355;28;19913;-69
2022/01/11 05:39:58;;;;;;;;;;;10.30;56.30;;;;;;5079380;28;19950;-69
2022/01/11 05:42:24;;;;;;;;;;;10.40;56.30;;;;;;5079256;28;19917;-70
2022/01/11 05:44:50;;;;;;;;;;;10.40;56.20;;;;;;5082518;28;19913;-70
2022/01/11 05:47:16;;;;;;;;;;;10.40;56.10;;;;;;5082839;28;19954;-69
2022/01/11 05:49:41;;;;;;;;;;;10.40;56.20;;;;;;5082879;28;19912;-70
2022/01/11 05:52:07;;;;;;;;;;;10.40;56.20;;;;;;5082821;28;19916;-70
2022/01/11 05:54:32;;;;;;;;;;;10.30;56.80;;;;;;5082764;28;19916;-70
2022/01/11 05:56:58;;;;;;;;;;;10.30;56.30;;;;;;5082762;28;20147;-71
2022/01/11 05:59:24;;;;;;;;;;;10.30;56.40;;;;;;5082410;28;19924;-70
2022/01/11 06:01:49;;;;;;;;;;;10.30;56.40;;;;;;5082574;28;20143;-70
2022/01/11 06:04:15;;;;;;;;;;;10.30;56.30;;;;;;5082544;28;19943;-69
2022/01/11 06:06:40;;;;;;;;;;;10.30;56.40;;;;;;5082602;28;19926;-70
2022/01/11 06:09:06;;;;;;;;;;;10.30;56.40;;;;;;5082549;28;19913;-69
2022/01/11 06:11:32;;;;;;;;;;;10.20;56.40;;;;;;5082402;28;19913;-69
2022/01/11 06:13:57;;;;;;;;;;;10.30;56.40;;;;;;5082437;28;19912;-71
2022/01/11 06:16:23;;;;;;;;;;;10.30;56.40;;;;;;5082383;28;19912;-70
2022/01/11 06:18:49;;;;;;;;;;;10.30;56.40;;;;;;5082340;28;19936;-70
2022/01/11 06:21:15;;;;;;;;;;;10.30;56.30;;;;;;5082206;28;19983;-70
2022/01/11 06:23:40;;;;;;;;;;;10.30;56.30;;;;;;5082300;28;19913;-69
2022/01/11 06:26:06;;;;;;;;;;;10.30;56.20;;;;;;5082251;28;19912;-70
2022/01/11 06:28:32;;;;;;;;;;;10.30;56.30;;;;;;5082084;28;20108;-69
2022/01/11 06:30:57;;;;;;;;;;;10.30;56.30;;;;;;5082130;28;20227;-70
2022/01/11 06:33:23;;;;;;;;;;;10.30;56.30;;;;;;5082064;28;19998;-70
2022/01/11 06:35:48;;;;;;;;;;;10.30;56.30;;;;;;5082015;28;20258;-69
2022/01/11 06:38:14;;;;;;;;;;;10.20;56.30;;;;;;5081876;28;19905;-70
2022/01/11 06:40:40;;;;;;;;;;;10.20;56.30;;;;;;5081904;28;20205;-70
2022/01/11 06:43:06;;;;;;;;;;;10.20;56.30;;;;;;5081830;28;19912;-70
2022/01/11 06:45:33;;;;;;;;;;;10.20;56.40;;;;;;5081763;28;20435;-70
2022/01/11 06:48:00;;;;;;;;;;;10.20;56.30;;;;;;5081786;28;19919;-70
2022/01/11 06:50:26;;;;;;;;;;;10.20;56.30;;;;;;5081693;28;19927;-70
2022/01/11 06:52:52;;;;;;;;;;;10.30;56.30;;;;;;5081624;28;19912;-69
2022/01/11 06:55:19;;;;;;;;;;;10.20;56.30;;;;;;5080682;28;20235;-70
2022/01/11 06:57:45;;;;;;;;;;;10.20;56.30;;;;;;5081497;28;19904;-70
2022/01/11 07:00:11;;;;;;;;;;;10.20;56.40;;;;;;5081517;28;19928;-70
2022/01/11 07:02:37;;;;;;;;;;;10.20;56.40;;;;;;5081437;28;19919;-70
2022/01/11 07:05:03;;;;;;;;;;;10.20;56.40;;;;;;5081439;28;19912;-70
2022/01/11 07:07:29;;;;;;;;;;;10.20;56.30;;;;;;5081355;28;19935;-70
2022/01/11 07:09:54;;;;;;;;;;;10.20;56.30;;;;;;5081345;28;19912;-70
2022/01/11 07:12:20;;;;;;;;;;;10.20;56.30;;;;;;5081322;28;20399;-70
2022/01/11 07:14:46;;;;;;;;;;;10.20;56.30;;;;;;5079983;28;19920;-70
2022/01/11 07:17:11;;;;;;;;;;;10.20;56.40;;;;;;5081185;28;19920;-71
2022/01/11 07:19:37;;;;;;;;;;;10.20;56.40;;;;;;5079948;28;19912;-70
2022/01/11 07:22:03;;;;;;;;;;;10.20;56.50;;;;;;5080930;28;19984;-70
2022/01/11 07:24:29;;;;;;;;;;;10.20;56.30;;;;;;5081097;28;20201;-69
2022/01/11 07:26:55;;;;;;;;;;;10.20;56.30;;;;;;5080965;28;19951;-70
2022/01/11 07:29:20;;;;;;;;;;;10.20;56.80;;;;;;5081062;28;19912;-69
2022/01/11 07:31:46;;;;;;;;;;;10.20;56.20;;;;;;5080861;28;20140;-70
2022/01/11 07:34:12;;;;;;;;;;;10.20;56.20;;;;;;5080775;28;19919;-70
2022/01/11 07:36:37;;;;;;;;;;;10.20;56.20;;;;;;5080850;28;20136;-70
2022/01/11 07:39:04;;;;;;;;;;;10.20;56.30;;;;;;5079524;28;19912;-70
2022/01/11 07:41:30;;;;;;;;;;;10.20;56.40;;;;;;5080616;28;19908;-70
2022/01/11 07:43:55;;;;;;;;;;;10.20;56.40;;;;;;5080562;28;20116;-70
2022/01/11 07:46:21;;;;;;;;;;;10.20;56.30;;;;;;5080590;28;20256;-70
2022/01/11 07:48:46;;;;;;;;;;;10.20;56.30;;;;;;5080610;28;19951;-69
2022/01/11 07:51:12;;;;;;;;;;;10.20;56.30;;;;;;5080762;28;19913;-70
2022/01/11 07:53:38;;;;;;;;;;;10.20;56.20;;;;;;5080456;28;20274;-70
2022/01/11 07:56:04;;;;;;;;;;;10.20;56.30;;;;;;5080396;28;19935;-69
2022/01/11 07:58:29;;;;;;;;;;;10.20;56.30;;;;;;5080221;28;19931;-70
2022/01/11 08:00:55;;;;;;;;;;;10.20;56.30;;;;;;5080295;28;20223;-69
2022/01/11 08:03:21;;;;;;;;;;;10.20;56.30;;;;;;5080323;28;19913;-70
2022/01/11 08:05:46;;;;;;;;;;;10.30;56.20;;;;;;5080091;28;19912;-69
2022/01/11 08:08:12;;;;;;;;;;;10.30;56.00;;;;;;5080461;28;20250;-70
2022/01/11 08:10:38;;;;;;;;;;;10.40;55.90;;;;;;5080185;28;20462;-69
2022/01/11 08:13:06;;;;;;;;;;;10.50;55.70;;;;;;5080137;28;19934;-70
2022/01/11 08:15:34;;;;;;;;;;;10.50;55.60;;;;;;5078862;28;20201;-70
2022/01/11 08:18:00;;;;;;;;;;;10.50;55.50;;;;;;5080146;28;19953;-69
2022/01/11 08:20:26;;;;;;;;;;;10.60;55.50;;;;;;5079939;28;19943;-70
2022/01/11 08:22:53;;;;;;;;;;;10.60;55.40;;;;;;5079972;28;19980;-70
2022/01/11 08:25:19;;;;;;;;;;;10.60;55.50;;;;;;5080058;28;19912;-70
2022/01/11 08:27:45;;;;;;;;;;;10.70;55.30;;;;;;5079988;28;19912;-70
2022/01/11 08:30:11;;;;;;;;;;;10.80;55.10;;;;;;5079986;28;19983;-71
2022/01/11 08:32:37;;;;;;;;;;;10.90;54.90;;;;;;5079995;28;19912;-70
2022/01/11 08:35:02;;;;;;;;;;;10.90;54.70;;;;;;5079890;28;19959;-70
2022/01/11 08:37:28;;;;;;;;;;;11.00;54.60;;;;;;5079871;28;19954;-70
2022/01/11 08:39:54;;;;;;;;;;;11.00;54.50;;;;;;5078592;28;19975;-70
2022/01/11 08:42:20;;;;;;;;;;;11.00;54.50;;;;;;5079757;28;19916;-70
2022/01/11 08:44:46;;;;;;;;;;;11.00;54.40;;;;;;5078513;28;20239;-69
2022/01/11 08:47:12;;;;;;;;;;;11.00;54.40;;;;;;5078717;28;20092;-70
2022/01/11 08:49:38;;;;;;;;;;;11.00;54.50;;;;;;5079752;28;19904;-71
2022/01/11 08:52:04;;;;;;;;;;;11.10;54.70;;;;;;5079739;28;20223;-70
2022/01/11 08:54:29;;;;;;;;;;;11.10;54.30;;;;;;5079689;28;20220;-70
2022/01/11 08:56:55;;;;;;;;;;;11.10;54.40;;;;;;5079709;28;20407;-70
2022/01/11 08:59:21;;;;;;;;;;;11.10;54.30;;;;;;5079509;28;19931;-71
2022/01/11 09:01:47;;;;;;;;;;;11.10;54.20;;;;;;5079600;28;19935;-70
2022/01/11 09:04:13;;;;;;;;;;;11.10;54.30;;;;;;5079561;28;20396;-70
2022/01/11 09:06:39;;;;;;;;;;;11.00;54.40;;;;;;5079654;28;19919;-70
2022/01/11 09:09:04;;;;;;;;;;;11.00;54.50;;;;;;5079510;28;19904;-70
2022/01/11 09:11:30;;;;;;;;;;;11.10;54.60;;;;;;5079632;28;19951;-70
2022/01/11 09:13:58;;;;;;;;;;;11.00;54.60;;;;;;5079483;28;19920;-70
2022/01/11 09:16:24;;;;;;;;;;;11.00;54.70;;;;;;5079473;28;20212;-70
2022/01/11 09:18:50;;;;;;;;;;;11.00;54.70;;;;;;5081325;28;20250;-70
2022/01/11 09:21:16;;;;;;;;;;;11.10;54.60;;;;;;5083327;28;19916;-70
2022/01/11 09:23:42;;;;;;;;;;;11.10;54.40;;;;;;5083579;28;20089;-71
2022/01/11 09:26:08;;;;;;;;;;;11.20;54.50;;;;;;5083290;28;19905;-70
2022/01/11 09:28:33;;;;;;;;;;;11.20;54.30;;;;;;5083252;28;20200;-70
2022/01/11 09:30:59;;;;;;;;;;;11.20;54.20;;;;;;5083209;28;19905;-70
2022/01/11 09:33:25;;;;;;;;;;;11.20;54.20;;;;;;5083135;28;19923;-70
2022/01/11 09:35:50;;;;;;;;;;;11.30;54.30;;;;;;5083059;28;20244;-70
2022/01/11 09:38:16;;;;;;;;;;;11.30;54.20;;;;;;5083124;28;19935;-70
2022/01/11 09:40:42;;;;;;;;;;;11.30;54.20;;;;;;5082905;28;20204;-70
2022/01/11 09:43:08;;;;;;;;;;;11.30;54.30;;;;;;5082934;28;19953;-71
2022/01/11 09:45:33;;;;;;;;;;;11.30;54.30;;;;;;5082952;28;20136;-70
2022/01/11 09:47:59;;;;;;;;;;;11.30;54.20;;;;;;5082986;28;19912;-70
2022/01/11 09:50:24;;;;;;;;;;;11.30;54.10;;;;;;5082883;28;19947;-70
2022/01/11 09:52:51;;;;;;;;;;;11.20;54.30;;;;;;5082959;28;19913;-70
2022/01/11 09:55:18;;;;;;;;;;;11.10;54.50;;;;;;5082906;28;19983;-70
2022/01/11 09:57:43;;;;;;;;;;;11.10;54.50;;;;;;5081515;28;19915;-71
2022/01/11 10:00:11;;;;;;;;;;;11.10;54.60;;;;;;5082586;28;19925;-71
2022/01/11 10:02:36;;;;;;;;;;;11.10;54.80;;;;;;5082663;28;19919;-70
2022/01/11 10:05:06;;;;;;;;;;;11.10;54.70;;;;;;5082590;28;19912;-70
2022/01/11 10:07:33;;;;;;;;;;;11.20;54.70;;;;;;5082537;28;19999;-70
2022/01/11 10:09:59;;;;;;;;;;;11.30;54.50;;;;;;5082605;28;20151;-70
2022/01/11 10:12:26;;;;;;;;;;;11.30;54.40;;;;;;5081110;28;20155;-70
2022/01/11 10:14:52;;;;;;;;;;;11.30;54.30;;;;;;5082443;28;19912;-70
2022/01/11 10:17:19;;;;;;;;;;;11.40;54.30;;;;;;5082494;28;19913;-70
2022/01/11 10:19:50;;;;;;;;;;;11.40;54.40;;;;;;5080951;28;19911;-70
2022/01/11 10:22:17;;;;;;;;;;;11.40;54.30;;;;;;5082258;28;20224;-70
2022/01/11 10:24:44;;;;;;;;;;;11.40;54.40;;;;;;5082249;28;19920;-70
2022/01/11 10:27:16;;;;;;;;;;;11.40;54.50;;;;;;5082208;28;19909;-70
2022/01/11 10:29:46;;;;;;;;;;;11.40;54.30;;;;;;5082020;28;19944;-70
2022/01/11 10:32:17;;;;;;;;;;;11.40;54.40;;;;;;5082090;28;19921;-69
2022/01/11 10:34:43;;;;;;;;;;;11.30;54.40;;;;;;5082029;28;19912;-70
2022/01/11 10:37:10;;;;;;;;;;;11.30;54.60;;;;;;5082007;28;19905;-70
2022/01/11 10:39:40;;;;;;;;;;;11.20;54.70;;;;;;5080618;28;20160;-70
2022/01/11 10:42:06;;;;;;;;;;;11.20;54.60;;;;;;5081854;28;19952;-70
2022/01/11 10:44:41;;;;;;;;;;;11.20;54.80;;;;;;5081821;28;20208;-70
2022/01/11 10:47:07;;;;;;;;;;;11.20;54.90;;;;;;5081797;28;19920;-70
2022/01/11 10:49:35;;;;;;;;;;;11.20;54.70;;;;;;5081797;28;19975;-70
2022/01/11 10:52:19;;;;;;;;;;;11.20;54.90;;;;;;5081771;28;19912;-70
2022/01/11 10:54:45;;;;;;;;;;;11.20;54.80;;;;;;5081566;28;19904;-70
2022/01/11 10:57:20;;;;;;;;;;;11.20;55.00;;;;;;5081674;28;19913;-70
2022/01/11 11:00:05;;;;;;;;;;;11.30;55.00;;;;;;5080188;28;19924;-70
2022/01/11 11:02:30;;;;;;;;;;;11.30;54.90;;;;;;5081414;28;19962;-70
2022/01/11 11:04:58;;;;;;;;;;;11.30;55.50;;;;;;5081487;28;19916;-69
2022/01/11 11:07:25;;;;;;;;;;;11.30;54.90;;;;;;5081366;28;20151;-69
2022/01/11 11:09:52;;;;;;;;;;;11.40;54.80;;;;;;5081300;28;19912;-70
2022/01/11 11:12:19;;;;;;;;;;;11.40;54.60;;;;;;5081386;28;19988;-70
2022/01/11 11:14:52;;;;;;;;;;;11.50;54.70;;;;;;5081199;28;19912;-70
2022/01/11 11:17:27;;;;;;;;;;;11.50;54.60;;;;;;5081177;28;19912;-70
2022/01/11 11:19:54;;;;;;;;;;;11.50;54.60;;;;;;5081181;28;19978;-70
2022/01/11 11:22:20;;;;;;;;;;;11.40;54.40;;;;;;5081086;28;20373;-70
2022/01/11 11:24:45;;;;;;;;;;;11.40;54.40;;;;;;5081024;28;19980;-70
2022/01/11 11:27:11;;;;;;;;;;;11.40;54.80;;;;;;5080963;28;20213;-70
2022/01/11 11:29:37;;;;;;;;;;;11.40;54.60;;;;;;5080950;28;19990;-70
2022/01/11 11:32:02;;;;;;;;;;;11.40;54.90;;;;;;5080952;28;19912;-70
2022/01/11 11:34:29;;;;;;;;;;;11.30;54.90;;;;;;5080915;28;19919;-70
2022/01/11 11:36:55;;;;;;;;;;;11.30;55.00;;;;;;5080767;28;19910;-70
2022/01/11 11:39:22;;;;;;;;;;;11.30;54.90;;;;;;5079502;28;19920;-71
2022/01/11 11:41:53;;;;;;;;;;;11.30;55.10;;;;;;5080182;28;19955;-70
2022/01/11 11:44:24;;;;;;;;;;;11.30;55.10;;;;;;5080784;28;19912;-70
2022/01/11 11:46:54;;;;;;;;;;;11.30;55.20;;;;;;5080664;28;19904;-70
2022/01/11 11:49:39;;;;;;;;;;;11.40;55.10;;;;;;5080707;28;19950;-70
2022/01/11 11:52:15;;;;;;;;;;;11.40;55.80;;;;;;5080531;28;19975;-70
2022/01/11 11:54:57;;;;;;;;;;;11.40;55.20;;;;;;5080610;28;19920;-70
2022/01/11 11:57:24;;;;;;;;;;;11.40;55.00;;;;;;5080404;28;19943;-70
2022/01/11 11:59:53;;;;;;;;;;;11.50;54.80;;;;;;5080321;28;19916;-69
2022/01/11 12:02:37;;;;;;;;;;;11.50;54.70;;;;;;5080289;28;19955;-69
2022/01/11 12:05:04;;;;;;;;;;;11.50;54.70;;;;;;5080312;28;19904;-70
2022/01/11 12:07:31;;;;;;;;;;;11.60;54.70;;;;;;5080276;28;19904;-70
2022/01/11 12:09:57;;;;;;;;;;;11.50;54.70;;;;;;5080281;28;19919;-70
2022/01/11 12:12:39;;;;;;;;;;;11.40;54.90;;;;;;5080184;28;19913;-70
2022/01/11 12:15:22;;;;;;;;;;;11.40;55.10;;;;;;5080085;28;20185;-70
2022/01/11 12:17:48;;;;;;;;;;;11.30;55.00;;;;;;5080128;28;19911;-70
2022/01/11 12:20:33;;;;;;;;;;;11.30;55.10;;;;;;5080095;28;19912;-71
2022/01/11 12:22:58;;;;;;;;;;;11.30;55.10;;;;;;5080099;28;20090;-71
2022/01/11 12:25:28;;;;;;;;;;;11.30;55.10;;;;;;5080021;28;19905;-70
2022/01/11 12:28:02;;;;;;;;;;;11.30;55.30;;;;;;5078705;28;19928;-70
2022/01/11 12:30:28;;;;;;;;;;;11.30;55.20;;;;;;5079936;28;20209;-70
2022/01/11 12:33:09;;;;;;;;;;;11.40;55.20;;;;;;5079988;28;19920;-70
2022/01/11 12:35:49;;;;;;;;;;;11.40;55.00;;;;;;5079796;28;19975;-70
2022/01/11 12:38:14;;;;;;;;;;;11.40;54.90;;;;;;5079941;28;19936;-70
2022/01/11 12:40:41;;;;;;;;;;;11.40;54.90;;;;;;5079823;28;19954;-70
2022/01/11 12:43:08;;;;;;;;;;;11.50;54.80;;;;;;5078543;28;19980;-70
2022/01/11 12:45:53;;;;;;;;;;;11.50;54.70;;;;;;5079721;28;20216;-70
2022/01/11 12:48:37;;;;;;;;;;;11.50;54.60;;;;;;5079851;28;19912;-70
2022/01/11 12:51:02;;;;;;;;;;;11.50;54.70;;;;;;5079757;28;19912;-70
2022/01/11 12:53:28;;;;;;;;;;;11.50;54.70;;;;;;5081115;28;19912;-69
2022/01/11 12:55:57;;;;;;;;;;;11.50;54.80;;;;;;5082599;28;19912;-70
2022/01/11 12:58:24;;;;;;;;;;;11.40;54.60;;;;;;5083882;28;20124;-70
2022/01/11 13:00:50;;;;;;;;;;;11.40;54.90;;;;;;5083596;28;19923;-70
2022/01/11 13:03:16;;;;;;;;;;;11.40;55.00;;;;;;5083720;28;19919;-70
2022/01/11 13:05:42;;;;;;;;;;;11.40;54.90;;;;;;5082442;28;19944;-70
2022/01/11 13:08:09;;;;;;;;;;;11.40;54.80;;;;;;5083666;28;19913;-70
2022/01/11 13:10:34;;;;;;;;;;;11.40;55.00;;;;;;5083226;28;19905;-70
2022/01/11 13:13:05;;;;;;;;;;;11.40;54.90;;;;;;5083652;28;19919;-69
2022/01/11 13:15:37;;;;;;;;;;;11.40;55.00;;;;;;5083874;28;19919;-69
2022/01/11 13:18:21;;;;;;;;;;;11.40;55.00;;;;;;5083483;28;20136;-70
2022/01/11 13:20:53;;;;;;;;;;;11.50;55.00;;;;;;5083366;28;20365;-70
2022/01/11 13:23:27;;;;;;;;;;;11.50;54.90;;;;;;5083444;28;19986;-69
2022/01/11 13:26:01;;;;;;;;;;;11.50;54.90;;;;;;5083255;28;19912;-70
2022/01/11 13:28:38;;;;;;;;;;;11.50;54.80;;;;;;5083417;28;19959;-70
2022/01/11 13:31:08;;;;;;;;;;;11.50;54.80;;;;;;5083153;28;19919;-69
2022/01/11 13:33:34;;;;;;;;;;;11.50;54.70;;;;;;5083226;28;19908;-70
2022/01/11 13:36:08;;;;;;;;;;;11.50;55.00;;;;;;5083223;28;19920;-70
2022/01/11 13:38:34;;;;;;;;;;;11.50;54.90;;;;;;5083080;28;19959;-69
2022/01/11 13:41:00;;;;;;;;;;;11.50;54.70;;;;;;5082964;28;19908;-70
2022/01/11 13:43:52;;;;;;;;;;;11.50;54.70;;;;;;5082932;28;19939;-69
2022/01/11 13:46:23;;;;;;;;;;;11.50;54.80;;;;;;5083737;28;19912;-70
2022/01/11 13:48:50;;;;;;;;;;;11.50;54.90;;;;;;5082992;28;19905;-70
2022/01/11 13:51:16;;;;;;;;;;;11.50;55.00;;;;;;5082784;28;19943;-70
2022/01/11 13:53:42;;;;;;;;;;;11.60;54.90;;;;;;5082843;28;19913;-69
2022/01/11 13:56:10;;;;;;;;;;;11.60;54.70;;;;;;5082739;28;19908;-69
2022/01/11 13:58:39;;;;;;;;;;;11.60;54.90;;;;;;5082538;28;19919;-69
2022/01/11 14:01:06;;;;;;;;;;;11.60;54.80;;;;;;5082633;28;20209;-69
2022/01/11 14:03:32;;;;;;;;;;;11.60;54.80;;;;;;5082434;28;19919;-70
2022/01/11 14:06:08;;;;;;;;;;;11.60;54.80;;;;;;5082315;28;19913;-70
2022/01/11 14:08:34;;;;;;;;;;;11.50;54.80;;;;;;5082523;28;20247;-69
2022/01/11 14:11:11;;;;;;;;;;;11.50;54.90;;;;;;5082495;28;19908;-70
2022/01/11 14:13:37;;;;;;;;;;;11.50;54.80;;;;;;5082616;28;19912;-71
2022/01/11 14:16:10;;;;;;;;;;;11.60;54.70;;;;;;5081179;28;19916;-70